WetterOnline ( https://www.wetteronline.de )

Wetter aktuell Uckermark

Aktuelles Wetter: Angermünde (55m)

6-stündlich | Neueste Meldungen
Ortszeit Temperatur Wetter
Sa, 23.10. 14:00 10.8° C wolkig
Sa, 23.10. 8:00 4.6° C fast wolkenlos
Sa, 23.10. 2:00 5.1° C wolkenlos
Fr, 22.10. 20:00 6.3° C wolkenlos
Fr, 22.10. 14:00 8.9° C Sprühregen
Fr, 22.10. 8:00 6.1° C wolkig
Fr, 22.10. 2:00 7.0° C wolkig
Do, 21.10. 20:00 7.7° C wolkig
Ortszeit Temperatur Wetter
Sa, 23.10. 15:30 11.1° C bewölkt
Sa, 23.10. 15:20 11.1° C bewölkt
Sa, 23.10. 15:10 11.0° C bedeckt
Sa, 23.10. 15:00 10.4° C bedeckt
Sa, 23.10. 14:50 10.4° C bedeckt
Sa, 23.10. 14:40 10.7° C bewölkt
Sa, 23.10. 14:30 10.7° C bewölkt
Sa, 23.10. 14:00 10.8° C wolkig
Sa, 23.10. 13:30 10.1° C wolkig
Sa, 23.10. 13:00 9.8° C bewölkt
Sa, 23.10. 12:30 10.2° C bewölkt
Ortszeit Relative Feuchte Sichtweite
Sa, 23.10. 14:00 66% 40 km
Sa, 23.10. 8:00 91% 35 km
Sa, 23.10. 2:00 88% 45 km
Fr, 22.10. 20:00 90% >70 km
Fr, 22.10. 14:00 73% 12 km
Fr, 22.10. 8:00 82% 35 km
Fr, 22.10. 2:00 78% 45 km
Do, 21.10. 20:00 87% 65 km
Ortszeit Relative Feuchte Sichtweite
Sa, 23.10. 15:30 64% 40 km
Sa, 23.10. 15:20 64% -
Sa, 23.10. 15:10 65% -
Sa, 23.10. 15:00 66% 40 km
Sa, 23.10. 14:50 66% -
Sa, 23.10. 14:40 66% -
Sa, 23.10. 14:30 65% -
Sa, 23.10. 14:00 66% 40 km
Sa, 23.10. 13:30 68% 45 km
Sa, 23.10. 13:00 72% 45 km
Sa, 23.10. 12:30 71% 40 km
Ortszeit Niederschlagsmenge Niederschlagsart
Sa, 23.10. 14:00 0.0 l/m2 in 6 Std. -
Sa, 23.10. 8:00 0.0 l/m2 in 12 Std. -
Sa, 23.10. 2:00 0.0 l/m2 in 6 Std. -
Fr, 22.10. 20:00 3 l/m2 in 12 Std. Regen
Fr, 22.10. 14:00 0.2 l/m2 in 6 Std. Regen
Fr, 22.10. 8:00 0.1 l/m2 in 12 Std. -
Fr, 22.10. 2:00 0.1 l/m2 in 6 Std. Regen
Do, 21.10. 20:00 0.6 l/m2 in 12 Std. Regen
Ortszeit Niederschlagsmenge Niederschlagsart
Sa, 23.10. 15:30 0.0 l/m2 in 1 Std. -
Sa, 23.10. 15:20 keine Meldung -
Sa, 23.10. 15:10 keine Meldung -
Sa, 23.10. 15:00 0.0 l/m2 in 1 Std. -
Sa, 23.10. 14:50 keine Meldung -
Sa, 23.10. 14:40 keine Meldung -
Sa, 23.10. 14:30 0.0 l/m2 in 1 Std. -
Sa, 23.10. 14:00 0.0 l/m2 in 1 Std. -
Sa, 23.10. 13:30 0.0 l/m2 in 1 Std. -
Sa, 23.10. 13:00 0.0 l/m2 in 1 Std. -
Sa, 23.10. 12:30 0.0 l/m2 in 1 Std. -
Ortszeit Stärke Spitze Richtung
km/h Bft. km/h Grad Sektor
Sa, 23.10. 14:00 24 4 44 300° NW
Sa, 23.10. 8:00 19 3 48 250° W
Sa, 23.10. 2:00 26 4 46 260° W
Fr, 22.10. 20:00 26 4 63 260° W
Fr, 22.10. 14:00 30 5 63 230° SW
Fr, 22.10. 8:00 28 4 48 240° SW
Fr, 22.10. 2:00 29 5 65 250° W
Do, 21.10. 20:00 18 3 86 240° SW
Ortszeit Stärke Spitze Richtung
km/h Bft. km/h Grad Sektor
Sa, 23.10. 15:30 22 4 40 280° W
Sa, 23.10. 15:20 22 4 - 280° W
Sa, 23.10. 15:10 24 4 - 280° W
Sa, 23.10. 15:00 26 4 39 280° W
Sa, 23.10. 14:50 26 4 - 280° W
Sa, 23.10. 14:40 25 4 - 280° W
Sa, 23.10. 14:30 28 4 39 290° W
Sa, 23.10. 14:00 24 4 44 300° NW
Sa, 23.10. 13:30 25 4 40 290° W
Sa, 23.10. 13:00 25 4 40 280° W
Sa, 23.10. 12:30 26 4 41 280° W
Ortszeit Untergrenze Bedeckung Gattung
total tief tief mittel hoch
Sa, 23.10. 14:00 1170 m 5/8 6/8 - - -
Sa, 23.10. 8:00 2700 m 1/8 1/8 - - -
Sa, 23.10. 2:00 - 0/8 0/8 - - -
Fr, 22.10. 20:00 - 0/8 0/8 - - -
Fr, 22.10. 14:00 840 m 8/8 8/8 - - -
Fr, 22.10. 8:00 2100 m 8/8 3/8 - - -
Fr, 22.10. 2:00 630 m 5/8 5/8 - - -
Do, 21.10. 20:00 1050 m 6/8 6/8 - - -
Ortszeit Bedeckungsgrad in Achtel und Wolkenuntergrenze
Sa, 23.10. 15:30 1(1170m) 7(1500m)
Sa, 23.10. 15:20 1(1170m) 7(1500m)
Sa, 23.10. 15:10 2(1230m) 8(1500m)
Sa, 23.10. 15:00 3(1230m) 8(1500m)
Sa, 23.10. 14:50 3(1230m) 8(1500m)
Sa, 23.10. 14:40 1(1080m) 7(1500m)
Sa, 23.10. 14:30 2(1080m) 6(1410m) 7(1500m)
Sa, 23.10. 14:00 5(1170m) 6(1380m)
Sa, 23.10. 13:30 5(1020m) 6(1260m)
Sa, 23.10. 13:00 6(870m) 7(1020m)
Sa, 23.10. 12:30 7(870m) 7(1050m)
Ortszeit Luftdruck NN (hPa) Tendenz (hPa in 3 Std.)
Sa, 23.10. 14:00 1024 + 2,2
Sa, 23.10. 8:00 1019 + 2,1
Sa, 23.10. 2:00 1014 + 1,7
Fr, 22.10. 20:00 1010 + 3,6
Fr, 22.10. 14:00 1005 - 1,1
Fr, 22.10. 8:00 1006 - 0,2
Fr, 22.10. 2:00 1005 + 3,0
Do, 21.10. 20:00 1000 + 2,7
Ortszeit Luftdruck NN (hPa) Tendenz (hPa in 3 Std.)
Sa, 23.10. 15:30 1024 + 1,9
Sa, 23.10. 15:20 1024 keine Meldung
Sa, 23.10. 15:10 1024 keine Meldung
Sa, 23.10. 15:00 1024 + 2,0
Sa, 23.10. 14:50 1024 keine Meldung
Sa, 23.10. 14:40 1024 keine Meldung
Sa, 23.10. 14:30 1024 + 2,1
Sa, 23.10. 14:00 1024 + 2,2
Sa, 23.10. 13:30 1023 + 2,3
Sa, 23.10. 13:00 1023 + 2,6
Sa, 23.10. 12:30 1023 + 2,5
Ortszeit Schneehöhe (cm)
Sa, 23.10. 14:00 0
Sa, 23.10. 8:00 0
Sa, 23.10. 2:00 0
Fr, 22.10. 20:00 0
Fr, 22.10. 14:00 0
Fr, 22.10. 8:00 0
Fr, 22.10. 2:00 0
Do, 21.10. 20:00 0
Ortszeit Schneehöhe (cm)
Sa, 23.10. 15:30 0
Sa, 23.10. 15:20 0
Sa, 23.10. 15:10 0
Sa, 23.10. 15:00 0
Sa, 23.10. 14:50 0
Sa, 23.10. 14:40 0
Sa, 23.10. 14:30 0
Sa, 23.10. 14:00 0
Sa, 23.10. 13:30 0
Sa, 23.10. 13:00 0
Sa, 23.10. 12:30 0
Link zu dieser Seite / Seite empfehlen

Das Wetter in ...